sensor_id;sensor_type;location;lat;lon;timestamp;P1;durP1;ratioP1;P2;durP2;ratioP2
62905;SDS011;49003;51.038;3.602;2022-07-29T00:01:00;5.88;;;1.63;;
62905;SDS011;49003;51.038;3.602;2022-07-29T00:03:28;4.85;;;1.73;;
62905;SDS011;49003;51.038;3.602;2022-07-29T00:05:53;7.05;;;1.73;;
62905;SDS011;49003;51.038;3.602;2022-07-29T00:08:20;10.40;;;1.95;;
62905;SDS011;49003;51.038;3.602;2022-07-29T00:10:46;4.68;;;1.92;;
62905;SDS011;49003;51.038;3.602;2022-07-29T00:13:11;5.65;;;1.75;;
62905;SDS011;49003;51.038;3.602;2022-07-29T00:15:37;4.07;;;1.80;;
62905;SDS011;49003;51.038;3.602;2022-07-29T00:18:03;6.53;;;2.35;;
62905;SDS011;49003;51.038;3.602;2022-07-29T00:20:31;3.70;;;2.40;;
62905;SDS011;49003;51.038;3.602;2022-07-29T00:22:59;6.75;;;2.10;;
62905;SDS011;49003;51.038;3.602;2022-07-29T00:25:25;6.88;;;2.05;;
62905;SDS011;49003;51.038;3.602;2022-07-29T00:27:50;5.00;;;2.20;;
62905;SDS011;49003;51.038;3.602;2022-07-29T00:30:18;10.23;;;2.35;;
62905;SDS011;49003;51.038;3.602;2022-07-29T00:32:44;5.50;;;1.75;;
62905;SDS011;49003;51.038;3.602;2022-07-29T00:35:10;7.40;;;2.25;;
62905;SDS011;49003;51.038;3.602;2022-07-29T00:37:55;3.30;;;1.83;;
62905;SDS011;49003;51.038;3.602;2022-07-29T00:40:23;10.07;;;2.40;;
62905;SDS011;49003;51.038;3.602;2022-07-29T00:42:51;4.85;;;2.15;;
62905;SDS011;49003;51.038;3.602;2022-07-29T00:45:20;4.93;;;2.10;;
62905;SDS011;49003;51.038;3.602;2022-07-29T00:47:47;12.32;;;2.20;;
62905;SDS011;49003;51.038;3.602;2022-07-29T00:50:15;9.20;;;2.30;;
62905;SDS011;49003;51.038;3.602;2022-07-29T00:52:41;6.82;;;2.50;;
62905;SDS011;49003;51.038;3.602;2022-07-29T00:55:09;5.25;;;2.13;;
62905;SDS011;49003;51.038;3.602;2022-07-29T00:57:36;7.10;;;2.60;;
62905;SDS011;49003;51.038;3.602;2022-07-29T01:00:06;11.32;;;2.88;;
62905;SDS011;49003;51.038;3.602;2022-07-29T01:02:33;8.13;;;2.83;;
62905;SDS011;49003;51.038;3.602;2022-07-29T01:05:00;8.05;;;2.67;;
62905;SDS011;49003;51.038;3.602;2022-07-29T01:07:27;9.15;;;2.38;;
62905;SDS011;49003;51.038;3.602;2022-07-29T01:09:56;13.43;;;3.15;;
62905;SDS011;49003;51.038;3.602;2022-07-29T01:12:24;6.82;;;2.50;;
62905;SDS011;49003;51.038;3.602;2022-07-29T01:14:54;7.90;;;2.67;;
62905;SDS011;49003;51.038;3.602;2022-07-29T01:17:23;5.85;;;2.53;;
62905;SDS011;49003;51.038;3.602;2022-07-29T01:22:58;8.75;;;3.10;;
62905;SDS011;49003;51.038;3.602;2022-07-29T01:28:13;7.68;;;3.33;;
62905;SDS011;49003;51.038;3.602;2022-07-29T01:31:02;9.30;;;3.10;;
62905;SDS011;49003;51.038;3.602;2022-07-29T01:33:30;6.50;;;2.90;;
62905;SDS011;49003;51.038;3.602;2022-07-29T01:41:59;9.25;;;3.35;;
62905;SDS011;49003;51.038;3.602;2022-07-29T01:44:36;7.07;;;2.75;;
62905;SDS011;49003;51.038;3.602;2022-07-29T01:49:43;8.15;;;3.05;;
62905;SDS011;49003;51.038;3.602;2022-07-29T01:52:19;9.70;;;3.10;;
62905;SDS011;49003;51.038;3.602;2022-07-29T01:54:52;9.02;;;3.05;;
62905;SDS011;49003;51.038;3.602;2022-07-29T01:57:25;9.38;;;3.13;;
62905;SDS011;49003;51.038;3.602;2022-07-29T01:59:54;7.60;;;3.67;;
62905;SDS011;49003;51.038;3.602;2022-07-29T02:02:23;9.52;;;2.85;;
62905;SDS011;49003;51.038;3.602;2022-07-29T02:04:53;7.63;;;3.28;;
62905;SDS011;49003;51.038;3.602;2022-07-29T02:07:21;6.10;;;2.95;;
62905;SDS011;49003;51.038;3.602;2022-07-29T02:09:49;9.98;;;3.17;;
62905;SDS011;49003;51.038;3.602;2022-07-29T02:12:16;5.97;;;3.50;;
62905;SDS011;49003;51.038;3.602;2022-07-29T02:14:44;9.88;;;3.60;;
62905;SDS011;49003;51.038;3.602;2022-07-29T02:17:17;7.55;;;3.60;;
62905;SDS011;49003;51.038;3.602;2022-07-29T02:19:56;4.57;;;3.20;;
62905;SDS011;49003;51.038;3.602;2022-07-29T02:22:24;7.95;;;3.72;;
62905;SDS011;49003;51.038;3.602;2022-07-29T02:24:51;5.85;;;3.63;;
62905;SDS011;49003;51.038;3.602;2022-07-29T02:27:19;6.13;;;3.88;;
62905;SDS011;49003;51.038;3.602;2022-07-29T02:29:46;8.75;;;3.80;;
62905;SDS011;49003;51.038;3.602;2022-07-29T02:32:14;6.43;;;3.75;;
62905;SDS011;49003;51.038;3.602;2022-07-29T02:34:41;6.95;;;4.07;;
62905;SDS011;49003;51.038;3.602;2022-07-29T02:37:09;10.00;;;4.47;;
62905;SDS011;49003;51.038;3.602;2022-07-29T02:39:36;6.15;;;3.88;;
62905;SDS011;49003;51.038;3.602;2022-07-29T02:42:07;8.70;;;4.22;;
62905;SDS011;49003;51.038;3.602;2022-07-29T02:44:35;6.40;;;3.88;;
62905;SDS011;49003;51.038;3.602;2022-07-29T02:50:06;12.90;;;4.38;;
62905;SDS011;49003;51.038;3.602;2022-07-29T02:58:02;13.20;;;4.53;;
62905;SDS011;49003;51.038;3.602;2022-07-29T03:00:34;9.15;;;5.07;;
62905;SDS011;49003;51.038;3.602;2022-07-29T03:03:03;7.15;;;4.28;;
62905;SDS011;49003;51.038;3.602;2022-07-29T03:05:32;8.27;;;4.28;;
62905;SDS011;49003;51.038;3.602;2022-07-29T03:08:01;9.45;;;4.47;;
62905;SDS011;49003;51.038;3.602;2022-07-29T03:10:32;6.30;;;4.85;;
62905;SDS011;49003;51.038;3.602;2022-07-29T03:12:58;7.60;;;4.40;;
62905;SDS011;49003;51.038;3.602;2022-07-29T03:15:28;9.75;;;5.28;;
62905;SDS011;49003;51.038;3.602;2022-07-29T03:17:56;6.20;;;4.35;;
62905;SDS011;49003;51.038;3.602;2022-07-29T03:20:23;5.45;;;4.43;;
62905;SDS011;49003;51.038;3.602;2022-07-29T03:22:49;10.75;;;6.97;;
62905;SDS011;49003;51.038;3.602;2022-07-29T03:25:16;6.20;;;4.45;;
62905;SDS011;49003;51.038;3.602;2022-07-29T03:27:47;5.63;;;4.05;;
62905;SDS011;49003;51.038;3.602;2022-07-29T03:30:13;7.47;;;4.85;;
62905;SDS011;49003;51.038;3.602;2022-07-29T03:32:41;7.90;;;5.40;;
62905;SDS011;49003;51.038;3.602;2022-07-29T03:35:07;8.55;;;5.15;;
62905;SDS011;49003;51.038;3.602;2022-07-29T03:37:35;8.23;;;4.97;;
62905;SDS011;49003;51.038;3.602;2022-07-29T03:40:02;9.50;;;5.68;;
62905;SDS011;49003;51.038;3.602;2022-07-29T03:42:31;12.57;;;6.22;;
62905;SDS011;49003;51.038;3.602;2022-07-29T03:45:02;11.05;;;5.70;;
62905;SDS011;49003;51.038;3.602;2022-07-29T03:47:34;10.10;;;6.45;;
62905;SDS011;49003;51.038;3.602;2022-07-29T03:50:07;7.68;;;6.18;;
62905;SDS011;49003;51.038;3.602;2022-07-29T03:52:38;9.75;;;5.63;;
62905;SDS011;49003;51.038;3.602;2022-07-29T03:55:04;11.90;;;6.03;;
62905;SDS011;49003;51.038;3.602;2022-07-29T03:57:30;10.73;;;6.43;;
62905;SDS011;49003;51.038;3.602;2022-07-29T03:59:57;6.60;;;5.55;;
62905;SDS011;49003;51.038;3.602;2022-07-29T04:02:25;10.88;;;6.95;;
62905;SDS011;49003;51.038;3.602;2022-07-29T04:04:52;12.45;;;6.25;;
62905;SDS011;49003;51.038;3.602;2022-07-29T04:07:17;14.02;;;7.20;;
62905;SDS011;49003;51.038;3.602;2022-07-29T04:09:45;11.60;;;7.03;;
62905;SDS011;49003;51.038;3.602;2022-07-29T04:12:11;9.90;;;6.93;;
62905;SDS011;49003;51.038;3.602;2022-07-29T04:14:37;11.15;;;6.68;;
62905;SDS011;49003;51.038;3.602;2022-07-29T04:17:03;8.90;;;5.88;;
62905;SDS011;49003;51.038;3.602;2022-07-29T04:19:31;12.57;;;7.05;;
62905;SDS011;49003;51.038;3.602;2022-07-29T04:21:59;12.02;;;7.05;;
62905;SDS011;49003;51.038;3.602;2022-07-29T04:24:26;12.90;;;7.07;;
62905;SDS011;49003;51.038;3.602;2022-07-29T04:26:52;12.15;;;6.30;;
62905;SDS011;49003;51.038;3.602;2022-07-29T04:29:20;8.93;;;6.35;;
62905;SDS011;49003;51.038;3.602;2022-07-29T04:31:46;14.40;;;7.20;;
62905;SDS011;49003;51.038;3.602;2022-07-29T04:34:12;8.95;;;6.90;;
62905;SDS011;49003;51.038;3.602;2022-07-29T04:36:40;14.50;;;7.13;;
62905;SDS011;49003;51.038;3.602;2022-07-29T04:39:05;14.35;;;7.30;;
62905;SDS011;49003;51.038;3.602;2022-07-29T04:41:31;10.82;;;6.53;;
62905;SDS011;49003;51.038;3.602;2022-07-29T04:43:57;12.13;;;6.93;;
62905;SDS011;49003;51.038;3.602;2022-07-29T04:46:22;9.70;;;6.95;;
62905;SDS011;49003;51.038;3.602;2022-07-29T04:48:48;10.27;;;7.25;;
62905;SDS011;49003;51.038;3.602;2022-07-29T04:51:14;10.65;;;7.25;;
62905;SDS011;49003;51.038;3.602;2022-07-29T04:53:40;26.02;;;8.48;;
62905;SDS011;49003;51.038;3.602;2022-07-29T04:56:06;10.32;;;7.60;;
62905;SDS011;49003;51.038;3.602;2022-07-29T04:58:33;12.35;;;7.70;;
62905;SDS011;49003;51.038;3.602;2022-07-29T05:01:00;15.32;;;8.05;;
62905;SDS011;49003;51.038;3.602;2022-07-29T05:03:25;14.10;;;6.78;;
62905;SDS011;49003;51.038;3.602;2022-07-29T05:05:51;11.05;;;6.88;;
62905;SDS011;49003;51.038;3.602;2022-07-29T05:08:17;11.77;;;6.43;;
62905;SDS011;49003;51.038;3.602;2022-07-29T05:10:42;11.18;;;6.03;;
62905;SDS011;49003;51.038;3.602;2022-07-29T05:13:08;12.70;;;5.85;;
62905;SDS011;49003;51.038;3.602;2022-07-29T05:15:36;13.23;;;5.43;;
62905;SDS011;49003;51.038;3.602;2022-07-29T05:18:04;16.52;;;5.05;;
62905;SDS011;49003;51.038;3.602;2022-07-29T05:20:30;10.02;;;4.93;;
62905;SDS011;49003;51.038;3.602;2022-07-29T05:22:57;10.10;;;5.32;;
62905;SDS011;49003;51.038;3.602;2022-07-29T05:25:24;13.40;;;4.70;;
62905;SDS011;49003;51.038;3.602;2022-07-29T05:27:51;5.15;;;4.28;;
62905;SDS011;49003;51.038;3.602;2022-07-29T05:30:19;11.43;;;4.45;;
62905;SDS011;49003;51.038;3.602;2022-07-29T05:32:45;4.82;;;3.50;;
62905;SDS011;49003;51.038;3.602;2022-07-29T05:35:11;9.65;;;4.15;;
62905;SDS011;49003;51.038;3.602;2022-07-29T05:37:38;11.77;;;4.00;;
62905;SDS011;49003;51.038;3.602;2022-07-29T05:40:04;12.05;;;3.80;;
62905;SDS011;49003;51.038;3.602;2022-07-29T05:42:33;10.25;;;3.90;;
62905;SDS011;49003;51.038;3.602;2022-07-29T05:44:59;7.45;;;4.20;;
62905;SDS011;49003;51.038;3.602;2022-07-29T05:47:25;8.98;;;3.90;;
62905;SDS011;49003;51.038;3.602;2022-07-29T05:49:51;14.35;;;3.55;;
62905;SDS011;49003;51.038;3.602;2022-07-29T05:52:17;5.97;;;3.47;;
62905;SDS011;49003;51.038;3.602;2022-07-29T05:54:43;11.73;;;4.20;;
62905;SDS011;49003;51.038;3.602;2022-07-29T05:57:15;8.63;;;3.60;;
62905;SDS011;49003;51.038;3.602;2022-07-29T05:59:46;11.73;;;3.63;;
62905;SDS011;49003;51.038;3.602;2022-07-29T06:02:13;3.97;;;3.10;;
62905;SDS011;49003;51.038;3.602;2022-07-29T06:04:39;6.10;;;3.63;;
62905;SDS011;49003;51.038;3.602;2022-07-29T06:07:05;8.45;;;3.58;;
62905;SDS011;49003;51.038;3.602;2022-07-29T06:09:33;7.03;;;3.30;;
62905;SDS011;49003;51.038;3.602;2022-07-29T06:11:59;6.28;;;3.08;;
62905;SDS011;49003;51.038;3.602;2022-07-29T06:14:25;7.97;;;3.80;;
62905;SDS011;49003;51.038;3.602;2022-07-29T06:16:51;6.47;;;2.97;;
62905;SDS011;49003;51.038;3.602;2022-07-29T06:19:18;13.35;;;3.67;;
62905;SDS011;49003;51.038;3.602;2022-07-29T06:21:44;7.22;;;3.35;;
62905;SDS011;49003;51.038;3.602;2022-07-29T06:24:13;6.68;;;3.33;;
62905;SDS011;49003;51.038;3.602;2022-07-29T06:26:40;4.88;;;3.33;;
62905;SDS011;49003;51.038;3.602;2022-07-29T06:29:06;11.65;;;3.80;;
62905;SDS011;49003;51.038;3.602;2022-07-29T06:31:33;8.15;;;3.30;;
62905;SDS011;49003;51.038;3.602;2022-07-29T06:33:59;10.90;;;3.30;;
62905;SDS011;49003;51.038;3.602;2022-07-29T06:36:27;5.35;;;3.13;;
62905;SDS011;49003;51.038;3.602;2022-07-29T06:38:53;5.07;;;3.25;;
62905;SDS011;49003;51.038;3.602;2022-07-29T06:41:23;8.20;;;3.15;;
62905;SDS011;49003;51.038;3.602;2022-07-29T06:43:49;11.50;;;3.33;;
62905;SDS011;49003;51.038;3.602;2022-07-29T06:46:16;10.13;;;3.20;;
62905;SDS011;49003;51.038;3.602;2022-07-29T06:48:43;10.25;;;3.40;;
62905;SDS011;49003;51.038;3.602;2022-07-29T06:51:09;10.10;;;3.65;;
62905;SDS011;49003;51.038;3.602;2022-07-29T06:53:36;7.57;;;3.60;;
62905;SDS011;49003;51.038;3.602;2022-07-29T06:56:05;12.20;;;3.90;;
62905;SDS011;49003;51.038;3.602;2022-07-29T06:58:34;15.07;;;3.97;;
62905;SDS011;49003;51.038;3.602;2022-07-29T07:01:03;11.13;;;3.80;;
62905;SDS011;49003;51.038;3.602;2022-07-29T07:03:29;9.43;;;4.45;;
62905;SDS011;49003;51.038;3.602;2022-07-29T07:05:58;8.00;;;3.63;;
62905;SDS011;49003;51.038;3.602;2022-07-29T07:08:24;8.48;;;4.30;;
62905;SDS011;49003;51.038;3.602;2022-07-29T07:10:52;15.07;;;4.25;;
62905;SDS011;49003;51.038;3.602;2022-07-29T07:13:18;8.77;;;4.03;;
62905;SDS011;49003;51.038;3.602;2022-07-29T07:15:44;19.02;;;4.32;;
62905;SDS011;49003;51.038;3.602;2022-07-29T07:18:12;16.55;;;4.80;;
62905;SDS011;49003;51.038;3.602;2022-07-29T07:20:40;14.05;;;5.35;;
62905;SDS011;49003;51.038;3.602;2022-07-29T07:23:06;10.73;;;5.00;;
62905;SDS011;49003;51.038;3.602;2022-07-29T07:25:32;8.05;;;4.95;;
62905;SDS011;49003;51.038;3.602;2022-07-29T07:27:58;11.90;;;4.78;;
62905;SDS011;49003;51.038;3.602;2022-07-29T07:30:26;11.57;;;4.22;;
62905;SDS011;49003;51.038;3.602;2022-07-29T07:32:52;7.15;;;4.40;;
62905;SDS011;49003;51.038;3.602;2022-07-29T07:35:18;15.60;;;5.10;;
62905;SDS011;49003;51.038;3.602;2022-07-29T07:37:44;13.80;;;4.82;;
62905;SDS011;49003;51.038;3.602;2022-07-29T07:40:11;11.85;;;5.13;;
62905;SDS011;49003;51.038;3.602;2022-07-29T07:42:38;9.00;;;4.28;;
62905;SDS011;49003;51.038;3.602;2022-07-29T07:45:05;12.18;;;5.00;;
62905;SDS011;49003;51.038;3.602;2022-07-29T07:47:32;9.88;;;5.50;;
62905;SDS011;49003;51.038;3.602;2022-07-29T07:49:57;15.25;;;5.80;;
62905;SDS011;49003;51.038;3.602;2022-07-29T07:52:23;9.88;;;5.72;;
62905;SDS011;49003;51.038;3.602;2022-07-29T07:54:49;11.82;;;5.72;;
62905;SDS011;49003;51.038;3.602;2022-07-29T07:57:15;9.15;;;6.20;;
62905;SDS011;49003;51.038;3.602;2022-07-29T07:59:41;11.00;;;5.90;;
62905;SDS011;49003;51.038;3.602;2022-07-29T08:02:07;10.63;;;6.60;;
62905;SDS011;49003;51.038;3.602;2022-07-29T08:04:35;11.40;;;5.72;;
62905;SDS011;49003;51.038;3.602;2022-07-29T08:07:01;9.77;;;5.20;;
62905;SDS011;49003;51.038;3.602;2022-07-29T08:09:29;11.23;;;5.00;;
62905;SDS011;49003;51.038;3.602;2022-07-29T08:11:56;9.50;;;4.55;;
62905;SDS011;49003;51.038;3.602;2022-07-29T08:14:22;7.38;;;4.68;;
62905;SDS011;49003;51.038;3.602;2022-07-29T08:16:48;9.52;;;4.55;;
62905;SDS011;49003;51.038;3.602;2022-07-29T08:19:14;10.00;;;4.35;;
62905;SDS011;49003;51.038;3.602;2022-07-29T08:21:42;8.98;;;4.30;;
62905;SDS011;49003;51.038;3.602;2022-07-29T08:24:07;11.07;;;3.97;;
62905;SDS011;49003;51.038;3.602;2022-07-29T08:26:55;8.98;;;3.58;;
62905;SDS011;49003;51.038;3.602;2022-07-29T08:29:20;10.93;;;3.63;;
62905;SDS011;49003;51.038;3.602;2022-07-29T08:31:46;9.38;;;4.00;;
62905;SDS011;49003;51.038;3.602;2022-07-29T08:34:14;12.07;;;3.45;;
62905;SDS011;49003;51.038;3.602;2022-07-29T08:36:39;8.48;;;3.20;;
62905;SDS011;49003;51.038;3.602;2022-07-29T08:39:07;7.55;;;3.00;;
62905;SDS011;49003;51.038;3.602;2022-07-29T08:41:33;11.45;;;3.42;;
62905;SDS011;49003;51.038;3.602;2022-07-29T08:43:58;5.85;;;3.03;;
62905;SDS011;49003;51.038;3.602;2022-07-29T08:46:24;6.28;;;3.03;;
62905;SDS011;49003;51.038;3.602;2022-07-29T08:48:50;6.93;;;2.63;;
62905;SDS011;49003;51.038;3.602;2022-07-29T08:51:17;7.15;;;2.70;;
62905;SDS011;49003;51.038;3.602;2022-07-29T08:53:45;7.60;;;2.92;;
62905;SDS011;49003;51.038;3.602;2022-07-29T08:56:16;6.03;;;3.00;;
62905;SDS011;49003;51.038;3.602;2022-07-29T08:58:43;8.38;;;3.72;;
62905;SDS011;49003;51.038;3.602;2022-07-29T09:01:10;6.82;;;2.88;;
62905;SDS011;49003;51.038;3.602;2022-07-29T09:03:37;12.07;;;3.45;;
62905;SDS011;49003;51.038;3.602;2022-07-29T09:06:04;7.43;;;2.97;;
62905;SDS011;49003;51.038;3.602;2022-07-29T09:08:33;4.43;;;2.75;;
62905;SDS011;49003;51.038;3.602;2022-07-29T09:11:01;6.25;;;3.03;;
62905;SDS011;49003;51.038;3.602;2022-07-29T09:13:28;7.47;;;3.28;;
62905;SDS011;49003;51.038;3.602;2022-07-29T09:15:53;5.82;;;2.67;;
62905;SDS011;49003;51.038;3.602;2022-07-29T09:21:08;5.88;;;2.92;;
62905;SDS011;49003;51.038;3.602;2022-07-29T09:24:04;4.57;;;3.00;;
62905;SDS011;49003;51.038;3.602;2022-07-29T09:26:31;5.95;;;2.80;;
62905;SDS011;49003;51.038;3.602;2022-07-29T09:28:59;9.57;;;2.67;;
62905;SDS011;49003;51.038;3.602;2022-07-29T09:31:44;10.93;;;2.83;;
62905;SDS011;49003;51.038;3.602;2022-07-29T09:34:16;8.27;;;2.70;;
62905;SDS011;49003;51.038;3.602;2022-07-29T09:36:48;6.32;;;2.58;;
62905;SDS011;49003;51.038;3.602;2022-07-29T09:39:15;5.32;;;2.50;;
62905;SDS011;49003;51.038;3.602;2022-07-29T09:41:54;8.68;;;1.92;;
62905;SDS011;49003;51.038;3.602;2022-07-29T09:44:21;8.68;;;1.90;;
62905;SDS011;49003;51.038;3.602;2022-07-29T09:47:01;3.78;;;2.15;;
62905;SDS011;49003;51.038;3.602;2022-07-29T09:49:50;6.88;;;2.00;;
62905;SDS011;49003;51.038;3.602;2022-07-29T09:52:24;12.85;;;1.70;;
62905;SDS011;49003;51.038;3.602;2022-07-29T09:54:50;4.03;;;1.70;;
62905;SDS011;49003;51.038;3.602;2022-07-29T09:57:27;36.67;;;2.42;;
62905;SDS011;49003;51.038;3.602;2022-07-29T10:00:03;3.45;;;1.65;;
62905;SDS011;49003;51.038;3.602;2022-07-29T10:02:32;3.53;;;1.40;;
62905;SDS011;49003;51.038;3.602;2022-07-29T10:05:02;7.03;;;1.52;;
62905;SDS011;49003;51.038;3.602;2022-07-29T10:07:43;5.78;;;1.42;;
62905;SDS011;49003;51.038;3.602;2022-07-29T10:10:18;4.30;;;1.73;;
62905;SDS011;49003;51.038;3.602;2022-07-29T10:12:54;4.88;;;1.75;;
62905;SDS011;49003;51.038;3.602;2022-07-29T10:15:29;4.30;;;1.23;;
62905;SDS011;49003;51.038;3.602;2022-07-29T10:17:57;6.63;;;1.63;;
62905;SDS011;49003;51.038;3.602;2022-07-29T10:20:24;5.47;;;1.63;;
62905;SDS011;49003;51.038;3.602;2022-07-29T10:22:50;6.25;;;1.80;;
62905;SDS011;49003;51.038;3.602;2022-07-29T10:25:19;8.00;;;1.80;;
62905;SDS011;49003;51.038;3.602;2022-07-29T10:27:46;4.13;;;1.77;;
62905;SDS011;49003;51.038;3.602;2022-07-29T10:30:14;4.72;;;1.42;;
62905;SDS011;49003;51.038;3.602;2022-07-29T10:44:01;3.55;;;1.33;;
62905;SDS011;49003;51.038;3.602;2022-07-29T10:46:34;4.35;;;1.90;;
62905;SDS011;49003;51.038;3.602;2022-07-29T10:57:27;9.43;;;1.92;;
62905;SDS011;49003;51.038;3.602;2022-07-29T11:05:04;8.23;;;1.75;;
62905;SDS011;49003;51.038;3.602;2022-07-29T11:07:34;8.20;;;1.50;;
62905;SDS011;49003;51.038;3.602;2022-07-29T11:22:58;5.80;;;1.63;;
62905;SDS011;49003;51.038;3.602;2022-07-29T11:25:25;11.98;;;1.98;;
62905;SDS011;49003;51.038;3.602;2022-07-29T11:27:51;5.18;;;2.08;;
62905;SDS011;49003;51.038;3.602;2022-07-29T11:30:19;9.73;;;2.03;;
62905;SDS011;49003;51.038;3.602;2022-07-29T11:32:45;6.70;;;1.50;;
62905;SDS011;49003;51.038;3.602;2022-07-29T11:35:18;6.00;;;1.25;;
62905;SDS011;49003;51.038;3.602;2022-07-29T11:43:59;4.78;;;1.80;;
62905;SDS011;49003;51.038;3.602;2022-07-29T11:49:20;7.03;;;1.80;;
62905;SDS011;49003;51.038;3.602;2022-07-29T11:51:54;4.68;;;1.67;;
62905;SDS011;49003;51.038;3.602;2022-07-29T11:54:24;9.23;;;1.80;;
62905;SDS011;49003;51.038;3.602;2022-07-29T11:56:58;4.32;;;1.80;;
62905;SDS011;49003;51.038;3.602;2022-07-29T11:59:26;4.55;;;1.75;;
62905;SDS011;49003;51.038;3.602;2022-07-29T12:01:54;6.45;;;2.03;;
62905;SDS011;49003;51.038;3.602;2022-07-29T12:04:20;8.55;;;1.70;;
62905;SDS011;49003;51.038;3.602;2022-07-29T12:06:57;6.97;;;1.65;;
62905;SDS011;49003;51.038;3.602;2022-07-29T12:09:25;4.85;;;1.90;;
62905;SDS011;49003;51.038;3.602;2022-07-29T12:11:56;5.85;;;1.85;;
62905;SDS011;49003;51.038;3.602;2022-07-29T12:14:24;4.78;;;1.40;;
62905;SDS011;49003;51.038;3.602;2022-07-29T12:16:53;5.03;;;1.30;;
62905;SDS011;49003;51.038;3.602;2022-07-29T12:19:19;6.25;;;2.00;;
62905;SDS011;49003;51.038;3.602;2022-07-29T12:21:51;6.05;;;1.83;;
62905;SDS011;49003;51.038;3.602;2022-07-29T12:24:23;5.97;;;1.90;;
62905;SDS011;49003;51.038;3.602;2022-07-29T12:26:49;4.22;;;1.48;;
62905;SDS011;49003;51.038;3.602;2022-07-29T12:29:16;5.60;;;1.73;;
62905;SDS011;49003;51.038;3.602;2022-07-29T12:31:45;6.93;;;1.73;;
62905;SDS011;49003;51.038;3.602;2022-07-29T12:34:14;4.72;;;1.85;;
62905;SDS011;49003;51.038;3.602;2022-07-29T12:36:41;5.10;;;1.60;;
62905;SDS011;49003;51.038;3.602;2022-07-29T12:39:10;7.13;;;1.88;;
62905;SDS011;49003;51.038;3.602;2022-07-29T12:41:38;7.68;;;1.60;;
62905;SDS011;49003;51.038;3.602;2022-07-29T12:44:06;4.22;;;1.55;;
62905;SDS011;49003;51.038;3.602;2022-07-29T12:46:34;16.48;;;1.63;;
62905;SDS011;49003;51.038;3.602;2022-07-29T12:49:03;3.55;;;2.20;;
62905;SDS011;49003;51.038;3.602;2022-07-29T12:51:30;5.40;;;1.90;;
62905;SDS011;49003;51.038;3.602;2022-07-29T12:54:07;5.40;;;2.08;;
62905;SDS011;49003;51.038;3.602;2022-07-29T12:56:41;4.97;;;1.85;;
62905;SDS011;49003;51.038;3.602;2022-07-29T12:59:12;6.10;;;1.80;;
62905;SDS011;49003;51.038;3.602;2022-07-29T13:01:43;6.43;;;1.80;;
62905;SDS011;49003;51.038;3.602;2022-07-29T13:04:23;7.30;;;1.63;;
62905;SDS011;49003;51.038;3.602;2022-07-29T13:07:05;5.25;;;1.52;;
62905;SDS011;49003;51.038;3.602;2022-07-29T13:12:05;4.95;;;1.90;;
62905;SDS011;49003;51.038;3.602;2022-07-29T13:14:38;4.23;;;1.83;;
62905;SDS011;49003;51.038;3.602;2022-07-29T13:19:43;5.03;;;2.47;;
62905;SDS011;49003;51.038;3.602;2022-07-29T13:22:11;8.93;;;2.15;;
62905;SDS011;49003;51.038;3.602;2022-07-29T13:27:16;3.05;;;1.92;;
62905;SDS011;49003;51.038;3.602;2022-07-29T13:29:43;10.35;;;2.30;;
62905;SDS011;49003;51.038;3.602;2022-07-29T13:32:08;4.68;;;1.63;;
62905;SDS011;49003;51.038;3.602;2022-07-29T13:34:34;4.93;;;1.80;;
62905;SDS011;49003;51.038;3.602;2022-07-29T13:37:00;5.72;;;1.92;;
62905;SDS011;49003;51.038;3.602;2022-07-29T13:39:25;4.75;;;1.88;;
62905;SDS011;49003;51.038;3.602;2022-07-29T13:41:51;6.00;;;1.60;;
62905;SDS011;49003;51.038;3.602;2022-07-29T13:44:19;2.45;;;1.40;;
62905;SDS011;49003;51.038;3.602;2022-07-29T13:46:45;3.60;;;1.45;;
62905;SDS011;49003;51.038;3.602;2022-07-29T13:49:11;6.85;;;1.48;;
62905;SDS011;49003;51.038;3.602;2022-07-29T13:51:37;4.88;;;1.60;;
62905;SDS011;49003;51.038;3.602;2022-07-29T13:54:03;2.65;;;1.40;;
62905;SDS011;49003;51.038;3.602;2022-07-29T13:56:29;9.93;;;1.73;;
62905;SDS011;49003;51.038;3.602;2022-07-29T13:58:54;5.45;;;1.58;;
62905;SDS011;49003;51.038;3.602;2022-07-29T14:01:23;4.90;;;1.40;;
62905;SDS011;49003;51.038;3.602;2022-07-29T14:03:48;7.00;;;1.42;;
62905;SDS011;49003;51.038;3.602;2022-07-29T14:06:14;3.17;;;1.70;;
62905;SDS011;49003;51.038;3.602;2022-07-29T14:08:40;4.07;;;1.48;;
62905;SDS011;49003;51.038;3.602;2022-07-29T14:11:08;10.70;;;1.50;;
62905;SDS011;49003;51.038;3.602;2022-07-29T14:13:34;10.18;;;1.38;;
62905;SDS011;49003;51.038;3.602;2022-07-29T14:16:01;3.17;;;1.15;;
62905;SDS011;49003;51.038;3.602;2022-07-29T14:18:26;6.50;;;1.35;;
62905;SDS011;49003;51.038;3.602;2022-07-29T14:20:52;7.70;;;1.73;;
62905;SDS011;49003;51.038;3.602;2022-07-29T14:23:20;8.93;;;1.50;;
62905;SDS011;49003;51.038;3.602;2022-07-29T14:25:46;8.57;;;1.60;;
62905;SDS011;49003;51.038;3.602;2022-07-29T14:28:11;5.15;;;1.60;;
62905;SDS011;49003;51.038;3.602;2022-07-29T14:30:39;4.85;;;1.90;;
62905;SDS011;49003;51.038;3.602;2022-07-29T14:33:05;4.00;;;1.50;;
62905;SDS011;49003;51.038;3.602;2022-07-29T14:35:33;4.20;;;1.40;;
62905;SDS011;49003;51.038;3.602;2022-07-29T14:38:00;7.55;;;1.30;;
62905;SDS011;49003;51.038;3.602;2022-07-29T14:40:26;6.10;;;1.70;;
62905;SDS011;49003;51.038;3.602;2022-07-29T14:42:54;6.35;;;1.45;;
62905;SDS011;49003;51.038;3.602;2022-07-29T14:45:19;4.80;;;1.35;;
62905;SDS011;49003;51.038;3.602;2022-07-29T14:47:45;5.50;;;1.45;;
62905;SDS011;49003;51.038;3.602;2022-07-29T14:50:11;8.57;;;1.75;;
62905;SDS011;49003;51.038;3.602;2022-07-29T14:52:37;7.15;;;1.58;;
62905;SDS011;49003;51.038;3.602;2022-07-29T14:55:03;6.05;;;1.50;;
62905;SDS011;49003;51.038;3.602;2022-07-29T14:57:32;9.18;;;1.70;;
62905;SDS011;49003;51.038;3.602;2022-07-29T14:59:58;7.80;;;1.50;;
62905;SDS011;49003;51.038;3.602;2022-07-29T15:02:24;3.13;;;1.30;;
62905;SDS011;49003;51.038;3.602;2022-07-29T15:04:49;5.43;;;1.67;;
62905;SDS011;49003;51.038;3.602;2022-07-29T15:07:18;3.80;;;1.20;;
62905;SDS011;49003;51.038;3.602;2022-07-29T15:09:44;4.80;;;1.50;;
62905;SDS011;49003;51.038;3.602;2022-07-29T15:12:12;5.28;;;1.45;;
62905;SDS011;49003;51.038;3.602;2022-07-29T15:14:38;5.65;;;1.58;;
62905;SDS011;49003;51.038;3.602;2022-07-29T15:17:06;2.30;;;1.00;;
62905;SDS011;49003;51.038;3.602;2022-07-29T15:19:36;7.15;;;1.33;;
62905;SDS011;49003;51.038;3.602;2022-07-29T15:22:03;3.38;;;1.20;;
62905;SDS011;49003;51.038;3.602;2022-07-29T15:24:33;11.68;;;1.38;;
62905;SDS011;49003;51.038;3.602;2022-07-29T15:27:03;6.63;;;1.42;;
62905;SDS011;49003;51.038;3.602;2022-07-29T15:29:29;3.45;;;1.40;;
62905;SDS011;49003;51.038;3.602;2022-07-29T15:31:57;12.98;;;1.73;;
62905;SDS011;49003;51.038;3.602;2022-07-29T15:34:26;11.93;;;1.50;;
62905;SDS011;49003;51.038;3.602;2022-07-29T15:36:54;5.97;;;1.42;;
62905;SDS011;49003;51.038;3.602;2022-07-29T15:39:19;6.68;;;1.50;;
62905;SDS011;49003;51.038;3.602;2022-07-29T15:41:46;2.67;;;1.33;;
62905;SDS011;49003;51.038;3.602;2022-07-29T15:44:12;2.85;;;1.23;;
62905;SDS011;49003;51.038;3.602;2022-07-29T15:46:38;3.50;;;1.30;;
62905;SDS011;49003;51.038;3.602;2022-07-29T15:49:22;4.63;;;1.50;;
62905;SDS011;49003;51.038;3.602;2022-07-29T15:51:50;7.28;;;1.42;;
62905;SDS011;49003;51.038;3.602;2022-07-29T15:54:15;6.10;;;1.60;;
62905;SDS011;49003;51.038;3.602;2022-07-29T15:56:41;4.68;;;1.45;;
62905;SDS011;49003;51.038;3.602;2022-07-29T15:59:07;5.70;;;1.60;;
62905;SDS011;49003;51.038;3.602;2022-07-29T16:01:32;5.20;;;1.42;;
62905;SDS011;49003;51.038;3.602;2022-07-29T16:04:01;6.88;;;1.73;;
62905;SDS011;49003;51.038;3.602;2022-07-29T16:06:26;5.18;;;1.50;;
62905;SDS011;49003;51.038;3.602;2022-07-29T16:08:57;5.93;;;1.65;;